Time;durP1;ratioP1;P1;durP2;ratioP2;P2;SDS_P1;SDS_P2;PMS_P1;PMS_P2;Temp;Humidity;BMP_temperature;BMP_pressure;BME280_temperature;BME280_humidity;BME280_pressure;Samples;Min_cycle;Max_cycle;Signal;HPM_P1;HPM_P2
2022/01/10 00:00:53;;;;;;;3.70;2.28;;;;;;;21.50;30.30;95968.81;12613123;23;20042;-51
2022/01/10 00:06:12;;;;;;;4.10;2.20;;;;;;;21.48;29.97;95971.09;12612791;23;20021;-52
2022/01/10 00:11:32;;;;;;;3.40;2.28;;;;;;;21.46;29.75;95973.38;12612873;23;20028;-50
2022/01/10 00:16:51;;;;;;;4.80;2.40;;;;;;;21.43;29.77;95979.50;12612449;23;20388;-51
2022/01/10 00:22:11;;;;;;;4.22;2.42;;;;;;;21.40;29.70;95984.81;12612721;23;20471;-52
2022/01/10 00:27:31;;;;;;;5.13;2.70;;;;;;;21.36;29.71;95984.75;12612167;23;20025;-51
2022/01/10 00:32:51;;;;;;;3.33;2.13;;;;;;;21.33;29.74;95983.53;12612722;23;20018;-51
2022/01/10 00:38:11;;;;;;;3.47;2.55;;;;;;;21.31;29.61;95990.47;12632123;23;20014;-51
2022/01/10 00:43:33;;;;;;;4.40;2.65;;;;;;;21.28;29.59;95988.44;12611878;23;20057;-51
2022/01/10 00:48:52;;;;;;;3.22;2.17;;;;;;;21.24;29.69;95995.72;12611401;23;20024;-52
2022/01/10 00:54:12;;;;;;;4.13;2.25;;;;;;;21.22;29.70;95995.28;12612025;23;20019;-50
2022/01/10 00:59:32;;;;;;;3.05;2.08;;;;;;;21.18;29.80;95997.91;12612045;23;20019;-51
2022/01/10 01:04:53;;;;;;;2.85;2.00;;;;;;;21.14;29.75;96014.06;12590428;23;20014;-52
2022/01/10 01:15:47;;;;;;;3.05;1.75;;;;;;;21.07;29.71;96013.94;12589807;23;20021;-52
2022/01/10 01:26:50;;;;;;;3.15;1.75;;;;;;;21.01;29.77;96037.00;12630907;23;20073;-51
2022/01/10 01:32:09;;;;;;;2.85;1.85;;;;;;;20.98;29.83;96045.84;12630987;23;20475;-51
2022/01/10 01:37:30;;;;;;;1.98;1.73;;;;;;;20.92;29.75;96044.53;12589575;23;20069;-52
2022/01/10 01:42:49;;;;;;;2.67;1.50;;;;;;;20.89;29.75;96051.41;12589793;23;20342;-51
2022/01/10 01:48:09;;;;;;;2.25;1.60;;;;;;;20.85;29.84;96053.25;12630427;23;20022;-54
2022/01/10 01:53:30;;;;;;;3.40;1.70;;;;;;;20.83;29.83;96060.94;12589470;23;20022;-52
2022/01/10 01:58:54;;;;;;;2.53;1.80;;;;;;;20.79;29.79;96062.00;12589518;23;20025;-51
2022/01/10 02:04:15;;;;;;;2.28;1.65;;;;;;;20.77;29.93;96072.38;12609041;23;20026;-51
2022/01/10 02:09:36;;;;;;;2.47;1.60;;;;;;;20.71;29.63;96077.28;12589315;23;20561;-51
2022/01/10 02:14:56;;;;;;;2.70;1.80;;;;;;;20.68;29.89;96078.78;12588435;23;20022;-53
2022/01/10 02:20:19;;;;;;;2.67;1.60;;;;;;;20.64;29.84;96082.50;12602421;23;20392;-51
2022/01/10 02:25:40;;;;;;;2.05;1.50;;;;;;;20.61;29.95;96094.81;12610555;23;20547;-53
2022/01/10 02:31:00;;;;;;;1.90;1.42;;;;;;;20.56;30.02;96097.75;12609221;23;20018;-51
2022/01/10 02:36:25;;;;;;;2.28;1.60;;;;;;;20.53;30.05;96109.28;12628729;23;20030;-50
2022/01/10 02:41:45;;;;;;;4.15;1.60;;;;;;;20.49;29.88;96108.41;12609267;23;20019;-51
2022/01/10 02:47:05;;;;;;;2.28;1.42;;;;;;;20.46;30.06;96114.50;12629957;23;20029;-51
2022/01/10 02:52:28;;;;;;;4.13;1.70;;;;;;;20.43;30.08;96115.19;12628392;23;20014;-52
2022/01/10 02:57:50;;;;;;;1.77;1.38;;;;;;;20.40;30.03;96129.41;12609100;23;20342;-52
2022/01/10 03:03:09;;;;;;;1.63;1.48;;;;;;;20.35;30.05;96131.22;12608846;23;20014;-50
2022/01/10 03:08:30;;;;;;;2.25;1.48;;;;;;;20.31;30.08;96134.97;12629533;23;20073;-50
2022/01/10 03:13:52;;;;;;;2.15;1.27;;;;;;;20.29;30.12;96150.75;12628220;23;20019;-51
2022/01/10 03:19:11;;;;;;;2.55;1.50;;;;;;;20.24;30.15;96154.47;12609293;23;20129;-51
2022/01/10 03:24:31;;;;;;;1.35;1.20;;;;;;;20.22;30.19;96156.75;12588212;23;20469;-50
2022/01/10 03:29:52;;;;;;;2.40;1.48;;;;;;;20.18;30.36;96163.97;12587514;23;20025;-51
2022/01/10 03:35:13;;;;;;;2.35;1.50;;;;;;;20.16;30.21;96179.75;12588443;23;20065;-50
2022/01/10 03:40:33;;;;;;;2.15;1.58;;;;;;;20.11;30.33;96177.28;12629185;23;20451;-51
2022/01/10 03:45:57;;;;;;;2.20;1.63;;;;;;;20.08;30.39;96175.28;12588399;23;20026;-51
2022/01/10 03:51:17;;;;;;;2.05;1.55;;;;;;;20.05;30.37;96192.19;12609652;23;20033;-50
2022/01/10 03:56:37;;;;;;;1.80;1.38;;;;;;;20.01;30.44;96194.00;12587441;23;20015;-50
2022/01/10 04:02:00;;;;;;;1.65;1.30;;;;;;;19.97;30.34;96206.63;12611041;23;20018;-51
2022/01/10 04:07:20;;;;;;;1.48;1.30;;;;;;;19.92;30.42;96203.03;12591544;23;20613;-51
2022/01/10 04:12:40;;;;;;;1.92;1.20;;;;;;;19.91;30.51;96214.94;12612498;23;20025;-51
2022/01/10 04:18:01;;;;;;;1.95;1.38;;;;;;;19.89;30.43;96221.84;12591112;23;20030;-51
2022/01/10 04:23:22;;;;;;;1.80;1.35;;;;;;;19.84;30.57;96225.56;12591378;23;20015;-52
2022/01/10 04:28:42;;;;;;;2.42;1.73;;;;;;;19.82;30.60;96232.44;12591380;23;20089;-52
2022/01/10 04:34:01;;;;;;;2.17;1.45;;;;;;;19.77;30.41;96229.97;12611795;23;20041;-51
2022/01/10 04:39:21;;;;;;;2.30;1.63;;;;;;;19.74;30.55;96244.94;12590985;23;20347;-51
2022/01/10 04:44:42;;;;;;;1.77;1.27;;;;;;;19.71;30.57;96249.09;12631833;23;20023;-52
2022/01/10 04:55:28;;;;;;;1.98;1.23;;;;;;;19.65;30.59;96266.63;12589985;23;20022;-51
2022/01/10 05:00:51;;;;;;;3.67;1.70;;;;;;;19.62;30.65;96271.91;12612080;23;20026;-50
2022/01/10 05:06:10;;;;;;;2.47;1.38;;;;;;;19.59;30.72;96283.41;12590579;23;20391;-51
2022/01/10 05:11:32;;;;;;;2.17;1.35;;;;;;;19.55;30.64;96291.41;12609531;23;20025;-50
2022/01/10 05:16:52;;;;;;;3.50;1.33;;;;;;;19.52;30.65;96294.75;12589989;23;20574;-51
2022/01/10 05:22:12;;;;;;;2.40;1.58;;;;;;;19.50;30.79;96303.22;12590216;23;20350;-52
2022/01/10 05:27:32;;;;;;;2.22;1.40;;;;;;;19.46;30.72;96307.69;12630944;23;20018;-52
2022/01/10 05:32:54;;;;;;;2.08;1.50;;;;;;;19.46;30.78;96318.50;12589933;23;20076;-52
2022/01/10 05:38:37;;;;;;;1.80;1.38;;;;;;;19.44;30.99;96326.16;12611279;23;20097;-51
2022/01/10 05:43:56;;;;;;;2.05;1.42;;;;;;;19.44;30.84;96330.78;12630958;23;20026;-51
2022/01/10 05:49:19;;;;;;;2.15;1.40;;;;;;;19.44;30.68;96338.88;12588796;23;20024;-51
2022/01/10 05:54:39;;;;;;;1.90;1.30;;;;;;;19.45;30.84;96356.69;12608481;23;20026;-51
2022/01/10 05:59:59;;;;;;;3.15;1.40;;;;;;;19.46;31.02;96355.53;12608504;23;20014;-51
2022/01/10 06:05:19;;;;;;;2.13;1.50;;;;;;;19.48;30.83;96364.91;12610504;23;20399;-53
2022/01/10 06:10:43;;;;;;;2.83;1.60;;;;;;;19.50;30.78;96369.97;12608451;23;20025;-52
2022/01/10 06:16:29;;;;;;;2.33;1.38;;;;;;;19.52;30.93;96384.72;12609802;23;20036;-51
2022/01/10 06:21:49;;;;;;;1.92;1.50;;;;;;;19.58;31.08;96384.50;12608226;23;20069;-51
2022/01/10 06:27:09;;;;;;;2.30;1.65;;;;;;;19.60;31.10;96396.56;12607415;23;20026;-51
2022/01/10 06:32:29;;;;;;;2.30;1.55;;;;;;;19.66;30.90;96413.34;12607828;23;20093;-50
2022/01/10 06:37:50;;;;;;;1.75;1.50;;;;;;;19.71;30.76;96421.25;12588485;23;20093;-51
2022/01/10 06:43:11;;;;;;;2.45;1.30;;;;;;;19.74;30.72;96426.81;12609959;23;20459;-53
2022/01/10 06:48:31;;;;;;;2.05;1.70;;;;;;;19.78;30.91;96443.16;12588417;23;20042;-50
2022/01/10 06:53:50;;;;;;;1.88;1.42;;;;;;;19.81;30.75;96453.28;12588328;23;20338;-52
2022/01/10 06:59:10;;;;;;;2.58;1.50;;;;;;;19.83;30.87;96464.53;12629128;23;20018;-52
2022/01/10 07:04:37;;;;;;;1.80;1.48;;;;;;;19.85;30.97;96475.81;12588352;23;20022;-51
2022/01/10 07:09:59;;;;;;;1.98;1.52;;;;;;;19.85;30.63;96475.81;12607956;23;20022;-51
2022/01/10 07:15:20;;;;;;;2.22;1.70;;;;;;;19.87;30.75;96492.50;12588006;23;20022;-51
2022/01/10 07:20:40;;;;;;;2.03;1.45;;;;;;;19.87;30.76;96495.19;12605602;23;20077;-51
2022/01/10 07:26:00;;;;;;;2.72;1.70;;;;;;;19.88;30.69;96506.81;12627890;23;20029;-50
2022/01/10 07:31:20;;;;;;;2.80;1.90;;;;;;;19.87;30.77;96511.41;12609618;23;20410;-51
2022/01/10 07:36:40;;;;;;;2.00;1.48;;;;;;;19.88;30.47;96517.63;12610805;23;20026;-51
2022/01/10 07:41:59;;;;;;;2.55;1.70;;;;;;;19.86;30.59;96526.06;12613514;23;20331;-50
2022/01/10 07:47:29;;;;;;;1.73;1.45;;;;;;;19.85;30.40;96535.28;12611138;23;20026;-51
2022/01/10 07:52:49;;;;;;;5.55;1.88;;;;;;;19.82;29.87;96541.38;12632570;23;20029;-53
2022/01/10 07:58:08;;;;;;;3.45;2.30;;;;;;;19.56;28.84;96560.47;12613538;23;20455;-51
2022/01/10 08:03:28;;;;;;;2.05;1.55;;;;;;;19.37;29.85;96558.22;12628419;23;20030;-51
2022/01/10 08:08:48;;;;;;;2.15;1.50;;;;;;;19.45;30.23;96565.47;12612009;23;20068;-51
2022/01/10 08:14:08;;;;;;;3.63;1.70;;;;;;;19.55;30.26;96575.88;12611713;23;20019;-51
2022/01/10 08:19:30;;;;;;;2.25;1.50;;;;;;;19.60;30.33;96576.81;12632303;23;20019;-50
2022/01/10 08:24:52;;;;;;;2.33;1.77;;;;;;;19.63;30.55;96592.38;12612288;23;20469;-51
2022/01/10 08:30:11;;;;;;;3.50;1.77;;;;;;;19.62;31.18;96597.00;12610695;23;20023;-53
2022/01/10 08:35:31;;;;;;;4.43;1.88;;;;;;;19.64;32.08;96602.03;12612144;23;20014;-50
2022/01/10 08:40:50;;;;;;;2.97;1.73;;;;;;;19.64;32.42;96607.44;12610438;23;20018;-51
2022/01/10 08:46:10;;;;;;;2.75;1.80;;;;;;;19.63;32.61;96620.19;12630703;23;20522;-51
2022/01/10 08:51:30;;;;;;;3.90;1.95;;;;;;;19.64;32.91;96631.78;12631050;23;20027;-52
2022/01/10 08:56:50;;;;;;;3.72;1.83;;;;;;;19.63;32.91;96633.69;12630693;23;20025;-50
2022/01/10 09:02:10;;;;;;;4.97;1.70;;;;;;;19.62;33.06;96653.75;12610270;23;20089;-51
2022/01/10 09:07:30;;;;;;;3.33;1.70;;;;;;;19.62;33.15;96658.34;12610915;23;20101;-51
2022/01/10 09:12:49;;;;;;;2.55;1.50;;;;;;;19.61;33.52;96662.94;12608276;23;20053;-52
2022/01/10 09:18:09;;;;;;;1.88;1.55;;;;;;;19.60;33.55;96668.69;12610295;23;20057;-50
2022/01/10 09:23:28;;;;;;;2.00;1.60;;;;;;;19.59;33.64;96678.72;12610101;23;20073;-54
2022/01/10 09:28:47;;;;;;;2.33;1.50;;;;;;;19.60;33.66;96690.31;12610019;23;20019;-51
2022/01/10 09:34:07;;;;;;;3.38;1.50;;;;;;;19.55;33.85;96683.97;12610266;23;20018;-51
2022/01/10 09:39:27;;;;;;;2.63;1.80;;;;;;;19.55;33.69;96700.19;12610060;23;20022;-51
2022/01/10 09:44:47;;;;;;;2.50;1.60;;;;;;;19.54;33.79;96693.22;12610568;23;20018;-51
2022/01/10 09:50:08;;;;;;;3.38;1.60;;;;;;;19.53;34.06;96707.03;12608309;23;20065;-51
2022/01/10 09:55:31;;;;;;;1.77;1.45;;;;;;;19.52;33.86;96717.06;12609452;23;20028;-51
2022/01/10 10:00:55;;;;;;;2.97;1.58;;;;;;;19.52;34.10;96716.25;12609708;23;20019;-50
2022/01/10 10:06:16;;;;;;;2.25;1.45;;;;;;;19.50;34.19;96716.59;12609712;23;20014;-53
2022/01/10 10:11:47;;;;;;;2.20;1.52;;;;;;;19.49;34.42;96728.50;12609543;23;20018;-51
2022/01/10 10:17:13;;;;;;;2.35;1.50;;;;;;;19.47;34.50;96733.44;12609269;23;20073;-51
2022/01/10 10:22:32;;;;;;;2.00;1.30;;;;;;;19.47;34.46;96733.44;12609371;23;20114;-51
2022/01/10 10:27:52;;;;;;;1.50;1.40;;;;;;;19.45;34.65;96743.00;12609562;23;20019;-50
2022/01/10 10:33:15;;;;;;;2.90;1.58;;;;;;;19.44;34.68;96747.59;12609348;23;20018;-51
2022/01/10 10:38:35;;;;;;;1.70;1.40;;;;;;;19.42;34.86;96752.53;12629142;23;20344;-51
2022/01/10 10:43:54;;;;;;;2.03;1.35;;;;;;;19.41;34.87;96756.34;12628034;23;20029;-51
2022/01/10 10:49:18;;;;;;;2.40;1.55;;;;;;;19.41;35.09;96764.47;12608375;23;20024;-50
2022/01/10 10:54:39;;;;;;;1.90;1.60;;;;;;;19.39;35.62;96776.72;12628832;23;20025;-50
2022/01/10 11:00:00;;;;;;;2.38;1.10;;;;;;;19.37;35.46;96782.44;12629121;23;20706;-51
2022/01/10 11:05:19;;;;;;;1.58;1.20;;;;;;;19.37;35.71;96795.94;12609294;23;20018;-50
2022/01/10 11:10:40;;;;;;;1.95;1.40;;;;;;;19.35;35.74;96809.75;12630276;23;20026;-50
2022/01/10 11:16:00;;;;;;;1.35;1.20;;;;;;;19.33;35.81;96817.41;12612641;23;20018;-51
2022/01/10 11:21:23;;;;;;;1.60;1.20;;;;;;;19.32;35.82;96826.59;12613116;23;20450;-50
2022/01/10 11:26:45;;;;;;;1.35;1.20;;;;;;;19.31;35.74;96827.72;12612865;23;20038;-51
2022/01/10 11:32:07;;;;;;;2.65;1.38;;;;;;;19.31;35.85;96829.66;12613160;23;20380;-50
2022/01/10 11:37:26;;;;;;;1.55;1.45;;;;;;;19.28;35.94;96836.47;12612827;23;20603;-50
2022/01/10 11:42:53;;;;;;;1.98;1.42;;;;;;;19.26;35.93;96838.69;12590726;23;20141;-50
2022/01/10 11:48:14;;;;;;;1.42;1.15;;;;;;;19.25;36.14;96847.94;12612923;23;20481;-51
2022/01/10 11:53:35;;;;;;;1.48;1.38;;;;;;;19.24;36.08;96857.13;12631890;23;20015;-52
2022/01/10 11:59:17;;;;;;;1.30;1.20;;;;;;;19.22;36.34;96861.28;12612570;23;20443;-50
2022/01/10 12:04:50;;;;;;;5.05;1.20;;;;;;;19.22;36.19;96872.06;12632256;23;20037;-50
2022/01/10 12:10:11;;;;;;;1.13;1.00;;;;;;;19.19;36.23;96881.63;12611720;23;20026;-51
2022/01/10 12:15:33;;;;;;;2.08;1.40;;;;;;;19.19;36.36;96880.81;12611987;23;20018;-50
2022/01/10 12:20:53;;;;;;;1.50;1.10;;;;;;;19.17;36.42;96890.03;12611409;23;20022;-51
2022/01/10 12:26:13;;;;;;;1.45;1.17;;;;;;;19.15;36.48;96897.66;12612285;23;20018;-51
2022/01/10 12:31:34;;;;;;;1.90;1.27;;;;;;;19.14;36.60;96901.47;12610145;23;20137;-50
2022/01/10 12:36:53;;;;;;;1.42;1.13;;;;;;;19.12;36.55;96906.38;12611704;23;20312;-50
2022/01/10 12:42:13;;;;;;;1.38;1.20;;;;;;;19.11;36.55;96922.91;12611819;23;20386;-51
2022/01/10 12:47:33;;;;;;;1.35;1.20;;;;;;;19.09;36.64;96939.44;12611704;23;20015;-51
2022/01/10 12:52:54;;;;;;;1.40;1.10;;;;;;;19.08;36.73;96945.94;12630927;23;20018;-50
2022/01/10 12:58:14;;;;;;;1.38;1.05;;;;;;;19.07;36.81;96954.34;12611195;23;20026;-50
2022/01/10 13:03:34;;;;;;;1.27;1.05;;;;;;;19.06;36.74;96964.38;12611263;23;20018;-50
2022/01/10 13:08:54;;;;;;;2.05;1.10;;;;;;;19.04;36.78;96977.41;12611244;23;20018;-50
2022/01/10 13:14:15;;;;;;;2.08;1.60;;;;;;;19.01;36.12;96972.63;12628355;23;20061;-51
2022/01/10 13:19:40;;;;;;;1.27;1.05;;;;;;;18.99;36.73;96984.84;12609839;23;20026;-51
2022/01/10 13:25:00;;;;;;;2.00;1.60;;;;;;;18.96;36.79;97002.47;12610767;23;20455;-51
2022/01/10 13:30:28;;;;;;;1.60;1.30;;;;;;;18.96;36.81;97007.88;12609665;23;20101;-53
2022/01/10 13:35:56;;;;;;;1.60;1.20;;;;;;;18.94;36.74;97013.59;12608322;23;20018;-52
2022/01/10 13:41:16;;;;;;;1.30;1.20;;;;;;;18.94;36.79;97018.97;12627184;23;20038;-53
2022/01/10 13:46:36;;;;;;;1.20;1.10;;;;;;;18.93;37.23;97035.50;12627203;23;20029;-52
2022/01/10 13:52:15;;;;;;;1.20;1.10;;;;;;;18.92;37.91;97039.31;12608331;23;20082;-53
2022/01/10 13:57:38;;;;;;;1.50;1.10;;;;;;;18.90;37.74;97046.94;12609300;23;20025;-51
2022/01/10 14:02:58;;;;;;;2.13;1.42;;;;;;;18.90;37.96;97055.03;12628925;23;20062;-52
2022/01/10 14:08:17;;;;;;;1.20;1.10;;;;;;;18.89;37.94;97069.63;12629425;23;20014;-51
2022/01/10 14:13:36;;;;;;;1.95;1.27;;;;;;;18.86;37.84;97079.16;12608944;23;20428;-53
2022/01/10 14:18:56;;;;;;;1.20;1.10;;;;;;;18.86;37.94;97083.75;12609013;23;20026;-51
2022/01/10 14:24:19;;;;;;;1.83;1.20;;;;;;;18.84;37.96;97096.78;12608769;23;20061;-51
2022/01/10 14:29:38;;;;;;;1.20;1.10;;;;;;;18.83;37.89;97109.47;12608887;23;20077;-51
2022/01/10 14:34:58;;;;;;;1.45;1.20;;;;;;;18.81;38.09;97111.66;12607804;23;20066;-51
2022/01/10 14:40:17;;;;;;;1.52;1.10;;;;;;;18.80;38.11;97122.78;12628907;23;20015;-54
2022/01/10 14:45:38;;;;;;;1.20;1.00;;;;;;;18.79;37.98;97132.75;12608618;23;20519;-52
2022/01/10 14:50:57;;;;;;;2.22;1.30;;;;;;;18.78;38.09;97141.97;12609284;23;20451;-51
2022/01/10 14:56:17;;;;;;;1.23;1.08;;;;;;;18.75;38.12;97148.75;12586306;23;20029;-54
2022/01/10 15:01:37;;;;;;;2.20;1.02;;;;;;;18.74;38.24;97147.19;12627136;23;20025;-52
2022/01/10 15:06:57;;;;;;;3.40;1.30;;;;;;;18.74;38.25;97154.50;12609485;23;20015;-51
2022/01/10 15:12:16;;;;;;;1.25;0.90;;;;;;;18.73;38.23;97167.16;12607730;23;20028;-54
2022/01/10 15:17:36;;;;;;;1.20;1.10;;;;;;;18.71;38.44;97177.47;12608326;23;20540;-52
2022/01/10 15:22:55;;;;;;;1.15;1.05;;;;;;;18.73;38.53;97188.75;12628760;23;20022;-53
2022/01/10 15:28:15;;;;;;;1.65;1.10;;;;;;;18.74;38.34;97197.69;12609164;23;20024;-51
2022/01/10 15:33:35;;;;;;;1.40;1.05;;;;;;;18.74;38.47;97208.47;12609290;23;20116;-51
2022/01/10 15:38:55;;;;;;;2.50;1.00;;;;;;;18.75;38.35;97216.25;12609080;23;20026;-51
2022/01/10 15:44:14;;;;;;;1.30;1.20;;;;;;;18.77;38.60;97224.03;12586819;23;20014;-54
2022/01/10 15:49:34;;;;;;;1.13;0.93;;;;;;;18.80;38.35;97231.56;12607886;23;20026;-51
2022/01/10 15:54:54;;;;;;;1.38;1.10;;;;;;;18.83;38.42;97238.22;12608988;23;20018;-51
2022/01/10 16:00:14;;;;;;;1.40;1.10;;;;;;;18.83;38.49;97249.03;12611618;23;20328;-52
2022/01/10 16:05:39;;;;;;;1.10;1.00;;;;;;;18.87;38.60;97264.28;12612675;23;20467;-50
2022/01/10 16:10:59;;;;;;;2.58;1.20;;;;;;;18.91;38.65;97269.88;12612032;23;20022;-51
2022/01/10 16:16:23;;;;;;;1.13;1.00;;;;;;;18.93;38.53;97289.25;12631239;23;20072;-53
2022/01/10 16:21:44;;;;;;;1.20;0.90;;;;;;;18.95;38.67;97289.75;12612384;23;20321;-54
2022/01/10 16:27:04;;;;;;;1.63;1.00;;;;;;;18.99;38.69;97289.94;12631733;23;20022;-54
2022/01/10 16:32:24;;;;;;;1.30;1.17;;;;;;;19.02;38.52;97297.44;12611827;23;20448;-51
2022/01/10 16:37:43;;;;;;;1.63;0.90;;;;;;;19.05;38.53;97324.63;12631263;23;20465;-52
2022/01/10 16:43:03;;;;;;;1.10;1.00;;;;;;;19.09;38.61;97335.59;12631374;23;20443;-51
2022/01/10 16:48:32;;;;;;;1.10;1.00;;;;;;;19.12;38.45;97341.19;12611311;23;20074;-51
2022/01/10 16:53:53;;;;;;;0.88;0.88;;;;;;;19.15;38.36;97354.06;12611271;23;20174;-51
2022/01/10 16:59:12;;;;;;;1.00;0.93;;;;;;;19.21;38.37;97356.63;12630897;23;20018;-51
2022/01/10 17:04:32;;;;;;;0.90;0.90;;;;;;;19.25;38.37;97374.63;12611595;23;20019;-52
2022/01/10 17:09:54;;;;;;;0.93;0.80;;;;;;;19.28;38.47;97386.72;12610757;23;20024;-51
2022/01/10 17:15:14;;;;;;;2.50;2.30;;;;;;;19.30;37.17;97398.00;12609600;23;20448;-51
2022/01/10 17:20:34;;;;;;;1.38;1.27;;;;;;;19.35;38.09;97400.59;12629915;23;20026;-51
2022/01/10 17:25:53;;;;;;;1.60;1.00;;;;;;;19.40;37.95;97408.56;12630499;23;20029;-51
2022/01/10 17:31:13;;;;;;;1.05;1.00;;;;;;;19.44;37.94;97414.16;12630417;23;20525;-53
2022/01/10 17:36:33;;;;;;;1.20;1.10;;;;;;;19.47;37.88;97433.25;12610434;23;20438;-51
2022/01/10 17:41:52;;;;;;;1.15;1.05;;;;;;;19.51;38.00;97434.22;12610294;23;20090;-51
2022/01/10 17:47:12;;;;;;;1.05;1.00;;;;;;;19.56;37.93;97447.63;12629904;23;20022;-54
2022/01/10 17:52:41;;;;;;;1.20;1.10;;;;;;;19.61;37.86;97462.13;12609892;23;20320;-51
2022/01/10 17:58:01;;;;;;;1.02;0.93;;;;;;;19.65;37.85;97471.22;12610177;23;20046;-53
2022/01/10 18:03:23;;;;;;;1.20;1.10;;;;;;;19.68;37.93;97475.97;12610053;23;20019;-51
2022/01/10 18:08:42;;;;;;;1.60;1.50;;;;;;;19.72;37.74;97491.31;12629241;23;20022;-51
2022/01/10 18:14:03;;;;;;;3.60;3.30;;;;;;;19.60;33.31;97498.34;12627467;23;20025;-51
2022/01/10 18:19:22;;;;;;;3.50;2.90;;;;;;;19.63;36.04;97506.66;12626417;23;20547;-51
2022/01/10 18:24:42;;;;;;;3.13;2.55;;;;;;;19.71;36.07;97511.34;12627471;23;20032;-51
2022/01/10 18:30:01;;;;;;;5.93;3.10;;;;;;;19.77;36.06;97522.84;12608043;23;20080;-51
2022/01/10 18:35:21;;;;;;;6.18;3.00;;;;;;;19.87;36.65;97524.50;12627621;23;20014;-52
2022/01/10 18:40:40;;;;;;;4.10;2.55;;;;;;;19.92;37.00;97530.56;12607855;23;20399;-52
2022/01/10 18:46:00;;;;;;;2.67;2.38;;;;;;;19.95;37.07;97540.78;12606891;23;20018;-51
2022/01/10 18:51:21;;;;;;;7.85;7.05;;;;;;;19.35;30.27;97549.19;12622789;23;20022;-50
2022/01/10 18:56:40;;;;;;;10.13;7.43;;;;;;;18.94;31.78;97550.84;12605645;23;20026;-51
2022/01/10 19:02:00;;;;;;;6.50;4.80;;;;;;;19.33;34.12;97556.81;12605525;23;20076;-51
2022/01/10 19:07:20;;;;;;;7.00;5.43;;;;;;;19.33;34.12;97556.81;12625051;23;20506;-51
2022/01/10 19:12:40;;;;;;;6.13;5.47;;;;;;;19.77;34.37;97571.50;12606594;23;20530;-50
2022/01/10 19:18:00;;;;;;;6.72;5.03;;;;;;;19.84;35.12;97585.41;12625105;23;20097;-49
2022/01/10 19:23:21;;;;;;;7.35;4.60;;;;;;;19.89;35.84;97587.97;12605590;23;20074;-50
2022/01/10 19:28:41;;;;;;;7.03;4.78;;;;;;;19.95;36.41;97585.94;12626088;23;20026;-51
2022/01/10 19:34:00;;;;;;;9.85;4.47;;;;;;;19.99;37.04;97603.16;12608219;23;20019;-50
2022/01/10 19:39:20;;;;;;;7.70;4.20;;;;;;;20.02;37.36;97610.66;12610331;23;20474;-51
2022/01/10 19:44:40;;;;;;;5.22;4.15;;;;;;;20.05;37.72;97615.47;12629987;23;20057;-52
2022/01/10 19:49:59;;;;;;;5.03;4.18;;;;;;;20.07;37.91;97624.06;12609526;23;20018;-50
2022/01/10 19:55:19;;;;;;;5.57;3.78;;;;;;;20.09;38.13;97629.16;12609574;23;20030;-51
2022/01/10 20:00:39;;;;;;;7.72;4.22;;;;;;;20.08;38.33;97630.28;12609356;23;20018;-52
2022/01/10 20:05:58;;;;;;;6.85;4.13;;;;;;;20.10;38.55;97638.88;12606920;23;20014;-50
2022/01/10 20:11:20;;;;;;;5.50;3.80;;;;;;;20.11;38.78;97643.16;12608805;23;20093;-51
2022/01/10 20:16:42;;;;;;;4.75;3.72;;;;;;;20.17;38.77;97655.50;12630162;23;20018;-50
2022/01/10 20:22:02;;;;;;;4.13;3.72;;;;;;;20.19;38.88;97664.09;12609471;23;20026;-51
2022/01/10 20:27:23;;;;;;;5.20;3.13;;;;;;;20.20;39.12;97665.69;12609976;23;20025;-50
2022/01/10 20:32:43;;;;;;;5.47;3.80;;;;;;;20.24;39.03;97669.38;12606920;23;20048;-51
2022/01/10 20:38:03;;;;;;;4.97;3.75;;;;;;;20.25;39.20;97681.81;12606990;23;20023;-50
2022/01/10 20:43:24;;;;;;;6.25;3.70;;;;;;;20.27;38.99;97682.28;12608428;23;20019;-51
2022/01/10 20:48:43;;;;;;;5.82;3.42;;;;;;;20.28;39.11;97692.00;12626698;23;20024;-50
2022/01/10 20:54:07;;;;;;;4.35;3.55;;;;;;;20.31;39.07;97696.81;12602641;23;20025;-50
2022/01/10 20:59:27;;;;;;;3.72;3.22;;;;;;;20.32;39.07;97698.41;12606652;23;20473;-49
2022/01/10 21:04:47;;;;;;;5.65;3.30;;;;;;;20.32;39.28;97692.97;12604763;23;20018;-51
2022/01/10 21:10:07;;;;;;;4.22;3.17;;;;;;;20.37;39.20;97696.69;12601351;23;20538;-50
2022/01/10 21:15:27;;;;;;;5.72;3.22;;;;;;;20.37;39.23;97704.81;12606319;23;20443;-50
2022/01/10 21:20:51;;;;;;;5.70;3.17;;;;;;;20.38;39.39;97714.53;12627290;23;20029;-53
2022/01/10 21:26:10;;;;;;;4.32;3.13;;;;;;;20.39;39.52;97710.72;12608280;23;20463;-51
2022/01/10 21:31:31;;;;;;;5.22;3.33;;;;;;;20.39;39.63;97716.13;12607491;23;20022;-50
2022/01/10 21:36:51;;;;;;;5.22;3.30;;;;;;;20.41;39.62;97724.75;12608106;23;20022;-52
2022/01/10 21:42:10;;;;;;;4.45;3.22;;;;;;;20.42;39.61;97729.03;12608000;23;20049;-51
2022/01/10 21:47:31;;;;;;;3.53;2.85;;;;;;;20.45;39.64;97733.84;12608344;23;20447;-51
2022/01/10 21:52:50;;;;;;;3.40;3.00;;;;;;;20.45;39.70;97736.56;12607352;23;20029;-51
2022/01/10 21:58:10;;;;;;;4.93;2.90;;;;;;;20.47;39.60;97745.94;12607916;23;20030;-51
2022/01/10 22:03:31;;;;;;;3.80;2.95;;;;;;;20.49;39.73;97759.19;12627522;23;20022;-53
2022/01/10 22:08:50;;;;;;;4.22;2.58;;;;;;;20.51;39.64;97770.50;12607839;23;20022;-52
2022/01/10 22:14:09;;;;;;;4.90;3.10;;;;;;;20.52;39.70;97775.63;12627317;23;20415;-51
2022/01/10 22:19:29;;;;;;;3.50;2.85;;;;;;;20.53;39.72;97771.00;12608876;23;20416;-50
2022/01/10 22:24:49;;;;;;;4.28;3.10;;;;;;;20.55;39.73;97777.69;12609976;23;20435;-52
2022/01/10 22:30:09;;;;;;;4.18;2.70;;;;;;;20.55;39.63;97791.22;12609997;23;20316;-51
2022/01/10 22:35:29;;;;;;;3.33;2.75;;;;;;;20.57;39.61;97790.13;12609624;23;20014;-51
2022/01/10 22:40:49;;;;;;;4.28;2.72;;;;;;;20.57;39.59;97803.69;12609765;23;20019;-52
2022/01/10 22:46:09;;;;;;;3.00;2.70;;;;;;;20.57;39.71;97809.09;12609614;23;20098;-52
2022/01/10 22:51:30;;;;;;;5.32;2.75;;;;;;;20.58;39.46;97816.91;12628768;23;20014;-50
2022/01/10 22:56:51;;;;;;;3.95;2.67;;;;;;;20.58;39.49;97816.09;12609581;23;20026;-54
2022/01/10 23:02:10;;;;;;;4.13;3.30;;;;;;;20.59;39.50;97828.53;12609287;23;20019;-53
2022/01/10 23:07:30;;;;;;;4.72;2.47;;;;;;;20.58;39.55;97832.34;12591342;23;20573;-53
2022/01/10 23:12:50;;;;;;;5.82;2.70;;;;;;;20.55;39.51;97837.25;12613771;23;20045;-50
2022/01/10 23:18:09;;;;;;;3.45;2.47;;;;;;;20.57;39.52;97841.56;12615552;23;20022;-53
2022/01/10 23:23:31;;;;;;;4.18;2.70;;;;;;;20.55;39.48;97839.97;12615582;23;20358;-50
2022/01/10 23:28:51;;;;;;;2.90;2.70;;;;;;;20.55;39.49;97847.28;12616059;23;20406;-53
2022/01/10 23:34:11;;;;;;;2.80;2.50;;;;;;;20.55;39.51;97847.28;12616094;23;20029;-51
2022/01/10 23:39:31;;;;;;;3.00;2.47;;;;;;;20.53;39.41;97853.00;12635676;23;20025;-51
2022/01/10 23:44:51;;;;;;;4.82;2.67;;;;;;;20.53;39.44;97846.78;12635093;23;20022;-51
2022/01/10 23:50:13;;;;;;;2.60;2.38;;;;;;;20.52;39.64;97839.75;12615877;23;20019;-50
2022/01/10 23:55:32;;;;;;;2.60;2.40;;;;;;;20.50;39.55;97845.50;12615806;23;20042;-50
